Time;durP1;ratioP1;P1;durP2;ratioP2;P2;SDS_P1;SDS_P2;PMS_P1;PMS_P2;Temp;Humidity;BMP_temperature;BMP_pressure;BME280_temperature;BME280_humidity;BME280_pressure;Samples;Min_cycle;Max_cycle;Signal;HPM_P1;HPM_P2
2022/10/29 00:00:53;;;;;;;11.07;5.90;;;;;;;14.10;100.00;98829.50;5013640;28;20230;-70
2022/10/29 00:03:21;;;;;;;13.50;5.97;;;;;;;14.04;100.00;98836.56;5013271;28;20655;-70
2022/10/29 00:06:02;;;;;;;8.97;5.30;;;;;;;14.03;100.00;98834.94;5013294;28;20230;-70
2022/10/29 00:08:30;;;;;;;12.20;6.27;;;;;;;14.00;100.00;98831.88;5014315;28;20678;-70
2022/10/29 00:11:06;;;;;;;15.23;6.13;;;;;;;13.95;100.00;98831.72;5013248;28;20233;-70
2022/10/29 00:13:32;;;;;;;12.73;5.57;;;;;;;13.94;100.00;98833.59;5008124;28;20206;-70
2022/10/29 00:15:59;;;;;;;10.17;5.40;;;;;;;13.89;100.00;98833.41;5012065;28;20559;-70
2022/10/29 00:18:25;;;;;;;14.47;5.83;;;;;;;13.90;100.00;98826.22;5013389;28;20210;-70
2022/10/29 00:21:04;;;;;;;10.37;5.60;;;;;;;13.90;100.00;98832.41;5013696;28;20233;-70
2022/10/29 00:23:30;;;;;;;10.20;5.90;;;;;;;13.85;100.00;98824.22;5012264;28;20209;-70
2022/10/29 00:25:58;;;;;;;10.10;5.70;;;;;;;13.81;100.00;98828.38;5013273;28;20725;-70
2022/10/29 00:28:24;;;;;;;11.50;5.93;;;;;;;13.76;100.00;98822.88;5013316;28;20205;-70
2022/10/29 00:30:51;;;;;;;10.57;5.50;;;;;;;13.79;100.00;98824.28;5014252;28;20565;-70
2022/10/29 00:33:19;;;;;;;14.57;6.17;;;;;;;13.82;100.00;98829.19;5011816;28;20685;-70
2022/10/29 00:36:02;;;;;;;9.37;5.40;;;;;;;13.78;100.00;98836.00;5013143;28;20199;-70
2022/10/29 00:38:30;;;;;;;10.60;5.67;;;;;;;13.77;100.00;98837.03;5013012;28;20224;-70
2022/10/29 00:40:57;;;;;;;16.70;6.13;;;;;;;13.77;100.00;98837.88;5002519;28;20231;-70
2022/10/29 00:43:25;;;;;;;11.50;5.57;;;;;;;13.74;100.00;98842.84;5011317;28;20217;-70
2022/10/29 00:45:58;;;;;;;9.17;5.70;;;;;;;13.70;100.00;98826.41;5014409;28;20235;-70
2022/10/29 00:48:29;;;;;;;16.00;6.47;;;;;;;13.72;100.00;98831.53;5013174;28;20225;-70
2022/10/29 00:50:57;;;;;;;8.50;5.70;;;;;;;13.73;100.00;98830.50;5013886;28;20227;-70
2022/10/29 00:53:28;;;;;;;12.57;5.63;;;;;;;13.68;100.00;98827.66;5011875;28;20225;-70
2022/10/29 00:55:54;;;;;;;11.37;6.17;;;;;;;13.68;100.00;98841.03;5012633;28;20263;-70
2022/10/29 00:58:21;;;;;;;12.43;6.10;;;;;;;13.64;100.00;98834.50;5012527;28;20211;-70
2022/10/29 01:00:48;;;;;;;10.73;6.37;;;;;;;13.60;100.00;98835.97;5011995;28;20223;-70
2022/10/29 01:03:14;;;;;;;8.30;5.13;;;;;;;13.56;100.00;98832.91;5010949;28;20209;-70
2022/10/29 01:05:41;;;;;;;10.20;6.33;;;;;;;13.47;100.00;98834.22;5013672;28;20210;-70
2022/10/29 01:08:07;;;;;;;11.87;6.30;;;;;;;13.46;100.00;98837.09;5012626;28;20206;-70
2022/10/29 01:10:40;;;;;;;10.20;5.97;;;;;;;13.46;100.00;98832.59;5012646;28;20570;-70
2022/10/29 01:13:17;;;;;;;14.77;6.77;;;;;;;13.45;100.00;98833.66;5009811;28;20199;-70
2022/10/29 01:15:48;;;;;;;12.47;6.47;;;;;;;13.47;100.00;98830.75;5011386;28;20213;-70
2022/10/29 01:18:14;;;;;;;13.97;6.20;;;;;;;13.46;100.00;98826.44;5014736;28;20203;-70
2022/10/29 01:21:04;;;;;;;11.20;5.63;;;;;;;13.46;100.00;98823.75;5012614;28;20229;-70
2022/10/29 01:23:59;;;;;;;15.30;6.30;;;;;;;13.44;100.00;98820.50;5011917;28;20207;-70
2022/10/29 01:26:55;;;;;;;10.40;5.90;;;;;;;13.46;100.00;98816.56;4984682;28;20230;-70
2022/10/29 01:29:35;;;;;;;12.47;6.07;;;;;;;13.47;100.00;98815.53;5012404;28;20199;-70
2022/10/29 01:32:12;;;;;;;16.70;6.40;;;;;;;13.52;100.00;98804.19;5012124;28;20697;-70
2022/10/29 01:35:00;;;;;;;13.30;6.40;;;;;;;13.58;100.00;98806.00;5011217;28;20672;-70
2022/10/29 01:37:53;;;;;;;12.33;6.10;;;;;;;13.56;100.00;98808.06;5012317;28;20654;-70
2022/10/29 01:40:46;;;;;;;14.87;6.40;;;;;;;13.57;100.00;98799.81;5013457;28;20239;-70
2022/10/29 01:43:18;;;;;;;10.83;5.93;;;;;;;13.58;100.00;98803.31;5012470;28;20219;-70
2022/10/29 01:45:54;;;;;;;11.33;5.90;;;;;;;13.57;100.00;98805.16;5011629;28;20202;-70
2022/10/29 01:48:31;;;;;;;12.10;5.73;;;;;;;13.54;100.00;98805.63;5011034;28;20209;-70
2022/10/29 01:51:02;;;;;;;11.17;5.83;;;;;;;13.50;100.00;98804.41;5011376;28;20230;-70
2022/10/29 01:53:30;;;;;;;10.30;5.90;;;;;;;13.49;100.00;98800.13;5000064;28;20593;-70
2022/10/29 01:55:56;;;;;;;8.07;5.67;;;;;;;13.46;100.00;98795.19;5011951;28;20226;-70
2022/10/29 01:58:24;;;;;;;11.33;6.20;;;;;;;13.47;100.00;98794.16;5012188;28;20217;-70
2022/10/29 02:01:18;;;;;;;11.00;5.80;;;;;;;13.48;100.00;98784.31;5013234;28;20226;-70
2022/10/29 02:04:04;;;;;;;13.43;5.60;;;;;;;13.47;100.00;98788.03;5012248;28;20217;-70
2022/10/29 02:06:42;;;;;;;14.17;5.87;;;;;;;13.47;100.00;98793.34;5008104;28;20222;-70
2022/10/29 02:09:16;;;;;;;14.13;5.67;;;;;;;13.47;100.00;98780.81;5001076;28;20203;-70
2022/10/29 02:11:57;;;;;;;8.33;5.73;;;;;;;13.44;100.00;98789.28;5015046;28;20253;-70
2022/10/29 02:14:33;;;;;;;11.47;5.73;;;;;;;13.42;100.00;98786.00;5014868;28;20199;-70
2022/10/29 02:17:01;;;;;;;12.27;5.97;;;;;;;13.42;100.00;98775.31;5016379;28;20224;-70
2022/10/29 02:19:32;;;;;;;9.40;5.50;;;;;;;13.46;100.00;98770.34;5015685;28;20206;-70
2022/10/29 02:21:58;;;;;;;13.73;5.47;;;;;;;13.48;100.00;98761.06;5015425;28;20248;-70
2022/10/29 02:24:25;;;;;;;11.83;5.47;;;;;;;13.51;100.00;98765.97;5013346;28;20210;-70
2022/10/29 02:26:52;;;;;;;12.37;5.23;;;;;;;13.54;100.00;98762.03;5016937;28;20218;-70
2022/10/29 02:29:18;;;;;;;11.70;5.37;;;;;;;13.52;100.00;98762.25;5014791;28;20207;-70
2022/10/29 02:31:45;;;;;;;11.77;5.60;;;;;;;13.54;100.00;98751.34;5016399;28;20226;-70
2022/10/29 02:34:12;;;;;;;12.37;5.73;;;;;;;13.53;100.00;98755.06;5014204;28;20206;-70
2022/10/29 02:36:38;;;;;;;9.77;5.60;;;;;;;13.51;100.00;98755.28;5015464;28;20224;-70
2022/10/29 02:39:04;;;;;;;9.07;5.47;;;;;;;13.50;100.00;98751.00;5014824;28;20215;-70
2022/10/29 02:41:31;;;;;;;10.93;5.10;;;;;;;13.52;100.00;98748.91;5016203;28;20238;-70
2022/10/29 02:43:57;;;;;;;10.57;5.23;;;;;;;13.51;100.00;98755.28;5014253;28;20203;-70
2022/10/29 02:46:24;;;;;;;11.37;5.77;;;;;;;13.54;100.00;98756.69;5014878;28;20230;-70
2022/10/29 02:48:50;;;;;;;11.77;6.07;;;;;;;13.54;100.00;98752.19;5015105;28;20236;-70
2022/10/29 02:51:17;;;;;;;12.87;6.33;;;;;;;13.54;100.00;98749.50;5014528;28;20235;-70
2022/10/29 02:53:44;;;;;;;11.87;6.13;;;;;;;13.56;100.00;98751.97;5014945;28;20211;-70
2022/10/29 02:56:11;;;;;;;15.67;6.03;;;;;;;13.61;100.00;98744.09;5014643;28;20207;-70
2022/10/29 02:58:37;;;;;;;11.23;5.13;;;;;;;13.61;100.00;98747.56;5014754;28;20199;-70
2022/10/29 03:01:04;;;;;;;8.63;5.27;;;;;;;13.59;100.00;98738.16;5014723;28;20233;-70
2022/10/29 03:03:30;;;;;;;11.53;5.80;;;;;;;13.61;100.00;98739.56;5015428;28;20689;-70
2022/10/29 03:05:57;;;;;;;8.53;5.37;;;;;;;13.63;100.00;98736.69;5014742;28;20203;-70
2022/10/29 03:08:23;;;;;;;14.23;5.37;;;;;;;13.64;100.00;98738.31;5013434;28;20225;-70
2022/10/29 03:10:49;;;;;;;14.83;5.70;;;;;;;13.63;100.00;98739.34;5014380;28;20740;-70
2022/10/29 03:13:16;;;;;;;8.60;4.97;;;;;;;13.62;100.00;98751.88;5014922;28;20662;-70
2022/10/29 03:15:44;;;;;;;10.60;5.67;;;;;;;13.60;100.00;98753.13;5015185;28;20254;-70
2022/10/29 03:18:11;;;;;;;16.17;5.87;;;;;;;13.62;100.00;98751.06;5013352;28;20254;-70
2022/10/29 03:20:37;;;;;;;9.83;5.20;;;;;;;13.59;100.00;98751.50;5014129;28;20574;-70
2022/10/29 03:23:04;;;;;;;9.90;5.27;;;;;;;13.56;100.00;98752.78;5014761;28;20233;-70
2022/10/29 03:25:30;;;;;;;11.60;5.00;;;;;;;13.52;100.00;98751.56;5014339;28;20217;-70
2022/10/29 03:27:56;;;;;;;15.53;5.83;;;;;;;13.52;100.00;98750.78;5014155;28;20236;-70
2022/10/29 03:30:23;;;;;;;12.67;5.63;;;;;;;13.49;100.00;98754.72;5014140;28;20294;-70
2022/10/29 03:32:49;;;;;;;11.10;5.63;;;;;;;13.52;100.00;98754.25;5013786;28;20658;-70
2022/10/29 03:35:16;;;;;;;10.93;5.27;;;;;;;13.47;100.00;98748.75;5013884;28;20207;-70
2022/10/29 03:37:43;;;;;;;9.00;5.20;;;;;;;13.50;100.00;98747.50;5013938;28;20206;-70
2022/10/29 03:40:10;;;;;;;11.87;5.33;;;;;;;13.51;100.00;98749.13;5013630;28;20233;-70
2022/10/29 03:42:38;;;;;;;10.50;5.63;;;;;;;13.57;100.00;98746.38;5013758;28;20673;-70
2022/10/29 03:45:04;;;;;;;10.07;5.30;;;;;;;13.52;100.00;98743.56;5013800;28;20217;-70
2022/10/29 03:47:32;;;;;;;12.70;5.67;;;;;;;13.54;100.00;98738.81;5014657;28;20226;-70
2022/10/29 03:49:59;;;;;;;12.53;5.40;;;;;;;13.56;100.00;98747.44;5011932;28;20206;-70
2022/10/29 03:52:25;;;;;;;11.43;5.40;;;;;;;13.54;100.00;98749.50;5014663;28;20210;-70
2022/10/29 03:54:51;;;;;;;11.93;5.30;;;;;;;13.53;100.00;98755.91;5013867;28;20210;-70
2022/10/29 03:57:18;;;;;;;11.23;5.63;;;;;;;13.59;100.00;98755.00;5014827;28;20202;-70
2022/10/29 03:59:44;;;;;;;11.67;5.47;;;;;;;13.54;100.00;98749.50;5011078;28;20210;-70
2022/10/29 04:02:11;;;;;;;7.70;5.40;;;;;;;13.54;100.00;98741.50;5014659;28;20222;-70
2022/10/29 04:04:38;;;;;;;10.57;5.70;;;;;;;13.55;100.00;98745.78;5013588;28;20293;-70
2022/10/29 04:07:05;;;;;;;10.80;5.80;;;;;;;13.56;100.00;98744.75;5013766;28;20589;-70
2022/10/29 04:09:31;;;;;;;9.23;4.53;;;;;;;13.56;100.00;98742.09;5012244;28;20206;-70
2022/10/29 04:11:57;;;;;;;10.13;5.27;;;;;;;13.55;100.00;98744.97;5015127;28;20230;-70
2022/10/29 04:14:24;;;;;;;13.13;5.93;;;;;;;13.54;100.00;98744.16;5005416;28;20207;-70
2022/10/29 04:16:50;;;;;;;7.77;4.70;;;;;;;13.55;100.00;98742.28;5008308;28;20221;-70
2022/10/29 04:19:16;;;;;;;10.13;4.90;;;;;;;13.51;100.00;98744.59;5012079;28;20206;-70
2022/10/29 04:21:43;;;;;;;12.13;5.70;;;;;;;13.49;100.00;98749.38;5013594;28;20226;-70
2022/10/29 04:24:09;;;;;;;11.07;5.30;;;;;;;13.48;100.00;98744.22;5013385;28;20615;-70
2022/10/29 04:26:36;;;;;;;12.00;5.20;;;;;;;13.46;100.00;98738.28;5013663;28;20225;-70
2022/10/29 04:29:02;;;;;;;8.97;4.73;;;;;;;13.46;100.00;98747.13;5013127;28;20207;-70
2022/10/29 04:31:29;;;;;;;8.90;5.10;;;;;;;13.42;100.00;98740.59;5013240;28;20230;-70
2022/10/29 04:33:55;;;;;;;10.13;5.50;;;;;;;13.40;100.00;98742.66;5013881;28;20206;-70
2022/10/29 04:36:21;;;;;;;8.83;5.17;;;;;;;13.38;100.00;98742.06;5013158;28;20212;-70
2022/10/29 04:38:49;;;;;;;13.97;5.47;;;;;;;13.41;100.00;98744.28;5012611;28;20203;-70
2022/10/29 04:41:16;;;;;;;11.83;5.20;;;;;;;13.45;100.00;98752.69;5013488;28;20226;-70
2022/10/29 04:43:42;;;;;;;10.10;5.33;;;;;;;13.50;100.00;98748.31;5013561;28;20214;-70
2022/10/29 04:46:10;;;;;;;11.13;4.60;;;;;;;13.47;100.00;98743.41;5012943;28;20217;-70
2022/10/29 04:48:37;;;;;;;13.03;5.60;;;;;;;13.43;100.00;98750.22;5011953;28;20226;-70
2022/10/29 04:51:03;;;;;;;9.33;4.80;;;;;;;13.47;100.00;98751.41;5013852;28;20222;-70
2022/10/29 04:53:30;;;;;;;10.70;4.83;;;;;;;13.44;100.00;98754.56;5012834;28;20203;-70
2022/10/29 04:56:02;;;;;;;7.67;5.17;;;;;;;13.43;100.00;98744.09;5012856;28;20202;-70
2022/10/29 04:58:28;;;;;;;12.13;5.13;;;;;;;13.42;100.00;98748.59;5012738;28;20207;-70
2022/10/29 05:01:01;;;;;;;11.80;5.10;;;;;;;13.34;100.00;98759.56;5012734;28;20222;-70
2022/10/29 05:03:27;;;;;;;11.37;5.20;;;;;;;13.27;100.00;98753.47;5012557;28;20214;-70
2022/10/29 05:05:54;;;;;;;9.70;5.30;;;;;;;13.26;100.00;98759.03;5010770;28;20203;-70
2022/10/29 05:08:20;;;;;;;9.70;4.83;;;;;;;13.19;100.00;98761.75;5012616;28;20225;-70
2022/10/29 05:10:46;;;;;;;9.73;5.43;;;;;;;13.18;100.00;98748.63;5013444;28;20230;-70
2022/10/29 05:13:13;;;;;;;10.27;4.90;;;;;;;13.15;100.00;98757.06;5013615;28;20573;-70
2022/10/29 05:15:40;;;;;;;12.03;4.80;;;;;;;13.10;100.00;98755.03;5010164;28;20210;-70
2022/10/29 05:18:07;;;;;;;9.80;5.20;;;;;;;13.14;100.00;98758.09;5013254;28;20213;-70
2022/10/29 05:20:34;;;;;;;11.67;4.87;;;;;;;13.12;100.00;98747.63;5012116;28;20230;-71
2022/10/29 05:23:07;;;;;;;11.23;5.07;;;;;;;13.07;100.00;98750.13;5013462;28;20206;-70
2022/10/29 05:25:35;;;;;;;12.63;5.10;;;;;;;13.06;100.00;98758.38;5010814;28;20207;-70
2022/10/29 05:28:17;;;;;;;10.67;4.90;;;;;;;13.03;100.00;98753.47;5012503;28;20230;-70
2022/10/29 05:30:44;;;;;;;9.63;5.10;;;;;;;12.96;100.00;98755.31;5013389;28;20226;-70
2022/10/29 05:33:14;;;;;;;8.07;4.67;;;;;;;12.92;100.00;98752.28;5012600;28;20212;-70
2022/10/29 05:35:40;;;;;;;8.47;4.87;;;;;;;12.91;100.00;98745.31;5011497;28;20205;-70
2022/10/29 05:38:07;;;;;;;9.97;5.53;;;;;;;12.83;100.00;98750.91;5012364;28;20562;-70
2022/10/29 05:40:33;;;;;;;9.63;5.23;;;;;;;12.80;100.00;98746.00;5011993;28;20230;-70
2022/10/29 05:43:00;;;;;;;13.40;5.40;;;;;;;12.77;100.00;98753.63;5013014;28;20210;-70
2022/10/29 05:45:26;;;;;;;9.20;4.70;;;;;;;12.77;100.00;98749.13;5010826;28;20210;-70
2022/10/29 05:47:57;;;;;;;13.57;5.37;;;;;;;12.72;100.00;98746.28;5016624;28;20706;-70
2022/10/29 05:50:23;;;;;;;9.23;5.03;;;;;;;12.68;100.00;98737.06;5015977;28;20231;-70
2022/10/29 05:53:01;;;;;;;7.80;5.27;;;;;;;12.65;100.00;98750.00;5017029;28;20209;-70
2022/10/29 05:55:29;;;;;;;12.60;5.50;;;;;;;12.64;100.00;98746.53;5015683;28;20202;-70
2022/10/29 05:58:06;;;;;;;10.50;5.23;;;;;;;12.63;100.00;98744.06;5016656;28;20210;-70
2022/10/29 06:00:35;;;;;;;9.70;5.07;;;;;;;12.53;100.00;98741.06;5015762;28;20230;-70
2022/10/29 06:03:02;;;;;;;9.90;5.47;;;;;;;12.50;100.00;98744.97;5016564;28;20209;-70
2022/10/29 06:05:28;;;;;;;12.73;5.13;;;;;;;12.52;100.00;98745.56;5014424;28;20213;-70
2022/10/29 06:07:56;;;;;;;10.67;5.37;;;;;;;12.48;100.00;98744.34;5016369;28;20705;-70
2022/10/29 06:10:24;;;;;;;10.97;5.53;;;;;;;12.49;100.00;98753.19;5012271;28;20233;-70
2022/10/29 06:12:51;;;;;;;8.30;5.30;;;;;;;12.49;100.00;98751.34;5008001;28;20215;-70
2022/10/29 06:15:18;;;;;;;10.07;5.30;;;;;;;12.49;100.00;98756.69;5016538;28;20221;-70
2022/10/29 06:17:45;;;;;;;10.83;5.40;;;;;;;12.47;100.00;98750.72;5015833;28;20205;-70
2022/10/29 06:20:13;;;;;;;9.67;5.10;;;;;;;12.40;100.00;98757.97;5014022;28;20227;-70
2022/10/29 06:22:40;;;;;;;13.67;6.33;;;;;;;12.40;100.00;98760.63;5016559;28;20216;-70
2022/10/29 06:25:07;;;;;;;11.40;5.93;;;;;;;12.32;100.00;98750.19;5015342;28;20209;-71
2022/10/29 06:27:33;;;;;;;10.10;5.73;;;;;;;12.36;100.00;98759.41;5016367;28;20222;-70
2022/10/29 06:29:59;;;;;;;11.80;5.90;;;;;;;12.35;100.00;98754.28;5014345;28;20206;-70
2022/10/29 06:32:26;;;;;;;17.13;6.07;;;;;;;12.34;100.00;98761.47;5016326;28;20216;-70
2022/10/29 06:34:52;;;;;;;10.93;5.80;;;;;;;12.31;100.00;98756.56;5015183;28;20221;-70
2022/10/29 06:37:19;;;;;;;11.77;5.23;;;;;;;12.36;100.00;98767.41;5016126;28;20210;-70
2022/10/29 06:39:45;;;;;;;11.73;5.30;;;;;;;12.38;100.00;98756.53;5013887;28;20221;-70
2022/10/29 06:42:11;;;;;;;10.23;5.50;;;;;;;12.41;100.00;98750.75;5014992;28;20210;-70
2022/10/29 06:44:38;;;;;;;9.97;5.47;;;;;;;12.41;100.00;98759.59;5014756;28;20203;-70
2022/10/29 06:47:04;;;;;;;11.37;5.27;;;;;;;12.46;100.00;98762.44;5015028;28;20210;-70
2022/10/29 06:49:31;;;;;;;9.67;5.97;;;;;;;12.47;100.00;98750.72;5015571;28;20658;-70
2022/10/29 06:51:57;;;;;;;11.47;5.50;;;;;;;12.47;100.00;98752.56;5012803;28;20249;-70
2022/10/29 06:54:23;;;;;;;14.20;5.63;;;;;;;12.53;100.00;98751.72;5015935;28;20217;-70
2022/10/29 06:56:50;;;;;;;14.23;6.13;;;;;;;12.57;100.00;98764.41;5013961;28;20207;-70
2022/10/29 06:59:16;;;;;;;9.83;5.70;;;;;;;12.58;100.00;98752.72;5015780;28;20213;-70
2022/10/29 07:01:42;;;;;;;10.70;5.63;;;;;;;12.64;100.00;98753.69;5014487;28;20308;-70
2022/10/29 07:04:09;;;;;;;10.67;5.70;;;;;;;12.69;100.00;98756.53;5014490;28;20221;-70
2022/10/29 07:06:35;;;;;;;10.93;5.80;;;;;;;12.71;100.00;98763.28;5013697;28;20207;-70
2022/10/29 07:09:01;;;;;;;14.77;5.97;;;;;;;12.74;100.00;98752.19;5014474;28;20242;-70
2022/10/29 07:11:28;;;;;;;11.17;5.33;;;;;;;12.82;100.00;98759.94;5015586;28;20238;-70
2022/10/29 07:13:54;;;;;;;8.33;5.50;;;;;;;12.83;100.00;98763.41;5014482;28;20230;-70
2022/10/29 07:16:20;;;;;;;13.43;5.80;;;;;;;12.84;100.00;98757.88;5014093;28;20218;-70
2022/10/29 07:18:47;;;;;;;9.57;6.00;;;;;;;12.87;100.00;98754.78;5014753;28;20213;-70
2022/10/29 07:21:13;;;;;;;14.13;6.17;;;;;;;12.92;100.00;98768.28;5014322;28;20237;-70
2022/10/29 07:23:40;;;;;;;13.60;6.47;;;;;;;12.95;100.00;98765.19;5014952;28;20615;-70
2022/10/29 07:26:06;;;;;;;12.43;5.77;;;;;;;13.00;100.00;98765.41;5014011;28;20207;-70
2022/10/29 07:28:32;;;;;;;11.20;5.97;;;;;;;13.04;100.00;98774.59;5015097;28;20237;-70
2022/10/29 07:31:01;;;;;;;14.03;5.83;;;;;;;13.12;100.00;98776.19;5013893;28;20233;-70
2022/10/29 07:33:30;;;;;;;9.37;5.50;;;;;;;13.17;100.00;98779.84;5013634;28;20203;-70
2022/10/29 07:35:58;;;;;;;9.67;6.10;;;;;;;13.22;100.00;98774.66;5013945;28;20206;-70
2022/10/29 07:38:25;;;;;;;8.97;5.90;;;;;;;13.33;100.00;98770.44;5014944;28;20207;-70
2022/10/29 07:40:52;;;;;;;11.30;5.70;;;;;;;13.42;100.00;98777.16;5013955;28;20226;-70
2022/10/29 07:43:20;;;;;;;13.27;6.23;;;;;;;13.48;100.00;98784.31;5015033;28;20206;-70
2022/10/29 07:45:51;;;;;;;10.47;5.90;;;;;;;13.54;100.00;98780.75;5012617;28;20218;-70
2022/10/29 07:48:19;;;;;;;11.37;5.30;;;;;;;13.68;100.00;98785.75;5013643;28;20226;-70
2022/10/29 07:50:46;;;;;;;14.43;5.87;;;;;;;13.73;100.00;98785.06;5013509;28;20226;-70
2022/10/29 07:53:12;;;;;;;11.63;5.80;;;;;;;13.78;100.00;98783.38;5014334;28;20209;-70
2022/10/29 07:55:39;;;;;;;13.40;5.67;;;;;;;13.87;100.00;98783.88;5013477;28;20211;-70
2022/10/29 07:58:08;;;;;;;14.07;5.60;;;;;;;13.92;100.00;98792.88;5013594;28;20206;-70
2022/10/29 08:00:37;;;;;;;9.90;5.37;;;;;;;14.10;100.00;98786.72;5013662;28;20222;-70
2022/10/29 08:03:04;;;;;;;11.53;4.97;;;;;;;14.12;100.00;98785.47;5014611;28;20218;-70
2022/10/29 08:05:31;;;;;;;10.47;6.07;;;;;;;14.25;100.00;98788.00;5012039;28;20206;-70
2022/10/29 08:07:58;;;;;;;10.57;6.20;;;;;;;14.33;100.00;98782.34;5014412;28;20223;-69
2022/10/29 08:10:25;;;;;;;10.37;5.23;;;;;;;14.48;100.00;98781.97;5012482;28;20223;-70
2022/10/29 08:12:53;;;;;;;10.00;5.63;;;;;;;14.70;100.00;98781.22;5012556;28;20211;-70
2022/10/29 08:15:19;;;;;;;10.53;5.07;;;;;;;14.83;100.00;98781.06;5014015;28;20222;-70
2022/10/29 08:17:46;;;;;;;13.70;5.50;;;;;;;14.92;100.00;98782.34;5013367;28;20208;-70
2022/10/29 08:20:13;;;;;;;10.80;5.10;;;;;;;15.22;100.00;98779.63;5012672;28;20226;-70
2022/10/29 08:22:40;;;;;;;11.43;5.20;;;;;;;15.30;100.00;98793.53;5009621;28;20210;-70
2022/10/29 08:25:06;;;;;;;8.67;5.20;;;;;;;15.27;100.00;98790.47;5014176;28;20262;-70
2022/10/29 08:27:33;;;;;;;10.97;5.80;;;;;;;15.48;100.00;98785.41;5013181;28;20207;-70
2022/10/29 08:29:59;;;;;;;10.87;5.13;;;;;;;15.56;100.00;98781.56;5013941;28;20211;-70
2022/10/29 08:32:26;;;;;;;9.73;5.63;;;;;;;15.53;100.00;98782.84;5011346;28;20214;-70
2022/10/29 08:34:52;;;;;;;12.90;5.50;;;;;;;15.53;100.00;98777.50;5013095;28;20203;-70
2022/10/29 08:37:18;;;;;;;9.93;5.20;;;;;;;15.62;100.00;98780.63;5012831;28;20210;-70
2022/10/29 08:39:45;;;;;;;9.43;5.43;;;;;;;15.59;100.00;98781.91;5013054;28;20203;-70
2022/10/29 08:42:29;;;;;;;13.20;5.47;;;;;;;15.61;100.00;98779.00;5012857;28;20211;-70
2022/10/29 08:45:08;;;;;;;10.93;5.93;;;;;;;15.67;100.00;98784.25;5013827;28;20209;-70
2022/10/29 08:47:59;;;;;;;9.80;5.33;;;;;;;15.81;100.00;98777.59;5012901;28;20206;-70
2022/10/29 08:50:33;;;;;;;10.17;5.70;;;;;;;15.77;100.00;98778.28;5012652;28;20237;-70
2022/10/29 08:53:02;;;;;;;12.57;5.90;;;;;;;15.81;100.00;98780.28;5012807;28;20209;-70
2022/10/29 08:55:37;;;;;;;12.70;5.80;;;;;;;15.78;100.00;98778.03;5012824;28;20206;-70
2022/10/29 08:58:21;;;;;;;8.97;5.33;;;;;;;15.96;100.00;98779.81;5012887;28;20202;-70
2022/10/29 09:00:50;;;;;;;13.43;6.27;;;;;;;15.95;100.00;98781.66;5013635;28;20227;-70
2022/10/29 09:03:16;;;;;;;13.43;6.40;;;;;;;16.07;100.00;98785.13;5012860;28;20207;-70
2022/10/29 09:05:50;;;;;;;11.63;5.90;;;;;;;16.09;100.00;98780.34;5013596;28;20211;-70
2022/10/29 09:08:40;;;;;;;12.70;6.00;;;;;;;16.08;100.00;98776.03;5012042;28;20242;-70
2022/10/29 09:11:13;;;;;;;8.30;5.10;;;;;;;16.31;100.00;98784.03;5004341;28;20223;-70
2022/10/29 09:13:46;;;;;;;11.50;5.07;;;;;;;16.50;100.00;98793.56;5013289;28;20658;-70
2022/10/29 09:16:30;;;;;;;12.93;4.97;;;;;;;16.47;100.00;98782.50;5011705;28;20215;-70
2022/10/29 09:19:10;;;;;;;10.90;5.30;;;;;;;16.54;100.00;98781.31;5009277;28;20205;-70
2022/10/29 09:21:53;;;;;;;13.00;5.63;;;;;;;16.66;100.00;98775.88;5013610;28;20221;-70
2022/10/29 09:24:49;;;;;;;13.27;5.27;;;;;;;17.01;95.52;98777.31;5017578;28;20190;-70
2022/10/29 09:27:24;;;;;;;9.93;5.20;;;;;;;16.93;98.45;98775.06;5001934;28;20203;-70
2022/10/29 09:30:18;;;;;;;11.60;5.10;;;;;;;16.94;99.43;98771.31;5007892;28;20652;-70
2022/10/29 09:33:09;;;;;;;10.00;5.00;;;;;;;17.01;99.24;98771.16;5016279;28;20203;-70
2022/10/29 09:35:39;;;;;;;11.73;5.40;;;;;;;17.16;98.48;98769.53;5015449;28;20207;-70
2022/10/29 09:38:14;;;;;;;8.53;5.30;;;;;;;17.27;96.40;98771.31;5016796;28;20214;-70
2022/10/29 09:40:43;;;;;;;11.97;5.47;;;;;;;17.45;94.77;98764.91;5014868;28;20226;-70
2022/10/29 09:43:36;;;;;;;14.17;5.33;;;;;;;17.51;94.56;98772.81;5016728;28;20251;-70
2022/10/29 09:46:14;;;;;;;11.13;5.23;;;;;;;17.65;93.27;98763.34;4996443;28;20204;-70
2022/10/29 09:48:59;;;;;;;15.60;5.73;;;;;;;17.98;91.06;98759.78;4999430;28;20217;-70
2022/10/29 09:51:50;;;;;;;8.37;5.07;;;;;;;17.97;90.25;98752.78;5011921;28;20226;-70
2022/10/29 09:54:16;;;;;;;8.20;5.43;;;;;;;18.32;87.12;98758.59;5016065;28;20233;-70
2022/10/29 09:56:46;;;;;;;14.33;5.83;;;;;;;18.26;86.92;98760.41;5016743;28;20217;-70
2022/10/29 09:59:40;;;;;;;11.53;6.00;;;;;;;18.58;83.91;98755.16;5014657;28;20206;-70
2022/10/29 10:02:27;;;;;;;11.17;5.40;;;;;;;18.77;82.80;98762.63;5015614;28;20234;-70
2022/10/29 10:04:58;;;;;;;12.43;5.93;;;;;;;18.80;82.78;98754.06;5001625;28;20203;-70
2022/10/29 10:07:24;;;;;;;13.13;6.27;;;;;;;18.89;83.53;98754.41;5015689;28;20191;-70
2022/10/29 10:09:58;;;;;;;17.13;6.20;;;;;;;18.81;82.62;98752.16;5015688;28;20230;-70
2022/10/29 10:12:36;;;;;;;13.33;5.33;;;;;;;19.12;81.62;98748.69;5015804;28;20195;-70
2022/10/29 10:15:14;;;;;;;14.13;5.63;;;;;;;19.24;79.22;98744.78;5016537;28;20214;-70
2022/10/29 10:17:58;;;;;;;8.50;5.20;;;;;;;19.32;79.11;98751.59;5014993;28;20199;-71
2022/10/29 10:20:30;;;;;;;14.30;5.30;;;;;;;19.49;80.23;98744.97;5015155;28;20226;-70
2022/10/29 10:22:56;;;;;;;8.77;4.60;;;;;;;19.63;77.09;98744.53;5015481;28;20210;-70
2022/10/29 10:25:37;;;;;;;12.70;5.13;;;;;;;19.63;76.43;98743.44;5016297;28;20209;-70
2022/10/29 10:28:17;;;;;;;10.37;4.60;;;;;;;19.87;75.62;98734.94;5007197;28;20206;-70
2022/10/29 10:31:04;;;;;;;12.37;5.10;;;;;;;19.84;75.67;98740.88;5015130;28;20373;-70
2022/10/29 10:33:33;;;;;;;7.93;4.20;;;;;;;19.89;74.32;98740.91;5014228;28;20207;-70
2022/10/29 10:36:06;;;;;;;7.33;4.47;;;;;;;20.02;75.13;98741.25;5014669;28;20696;-70
2022/10/29 10:38:44;;;;;;;11.57;4.40;;;;;;;19.93;76.61;98728.53;5012451;28;20203;-70
2022/10/29 10:41:12;;;;;;;9.90;4.73;;;;;;;19.89;75.45;98730.13;5014869;28;20230;-70
2022/10/29 10:43:43;;;;;;;7.27;3.93;;;;;;;19.99;76.17;98725.56;5015738;28;20217;-70
2022/10/29 10:46:49;;;;;;;9.30;4.27;;;;;;;19.89;77.98;98722.81;5012780;28;20203;-70
2022/10/29 10:49:18;;;;;;;12.73;4.90;;;;;;;19.86;75.30;98722.53;5015780;28;20614;-70
2022/10/29 10:51:49;;;;;;;7.93;4.83;;;;;;;19.95;75.19;98712.88;5013594;28;20223;-70
2022/10/29 10:54:27;;;;;;;13.70;5.93;;;;;;;20.17;75.42;98708.94;5009535;28;20202;-70
2022/10/29 10:57:15;;;;;;;12.60;6.17;;;;;;;20.20;76.60;98704.88;5014004;28;20692;-70
2022/10/29 11:00:01;;;;;;;13.10;5.70;;;;;;;20.29;74.76;98708.69;5012779;28;20199;-70
2022/10/29 11:02:39;;;;;;;10.63;6.20;;;;;;;20.42;73.73;98700.91;5010819;28;20205;-69
2022/10/29 11:05:31;;;;;;;10.87;5.53;;;;;;;20.52;73.68;98708.25;5012276;28;20198;-70
2022/10/29 11:08:13;;;;;;;12.97;5.87;;;;;;;20.53;73.69;98696.38;5009681;28;20670;-69
2022/10/29 11:10:45;;;;;;;11.43;6.00;;;;;;;20.49;73.19;98700.66;5011145;28;20372;-70
2022/10/29 11:13:18;;;;;;;9.17;5.97;;;;;;;20.56;73.27;98696.63;5013826;28;20202;-70
2022/10/29 11:15:48;;;;;;;14.80;5.80;;;;;;;20.67;71.54;98698.25;5011575;28;20218;-70
2022/10/29 11:18:33;;;;;;;9.50;5.37;;;;;;;20.70;71.08;98689.63;5008538;28;20678;-70
2022/10/29 11:21:06;;;;;;;13.23;5.07;;;;;;;20.68;72.51;98689.09;5012388;28;20219;-70
2022/10/29 11:23:57;;;;;;;17.50;5.70;;;;;;;20.54;73.40;98687.16;5013528;28;20202;-70
2022/10/29 11:26:36;;;;;;;15.07;6.50;;;;;;;20.71;73.53;98685.84;5013204;28;20233;-70
2022/10/29 11:29:21;;;;;;;10.63;5.73;;;;;;;20.77;73.19;98681.25;5012691;28;20230;-70
2022/10/29 11:31:57;;;;;;;10.83;5.17;;;;;;;20.83;73.82;98688.28;5014138;28;20233;-70
2022/10/29 11:34:28;;;;;;;12.87;4.83;;;;;;;20.77;73.40;98682.09;5012617;28;20206;-70
2022/10/29 11:37:12;;;;;;;13.10;4.57;;;;;;;20.72;72.48;98683.97;5015076;28;20205;-70
2022/10/29 11:39:49;;;;;;;13.77;4.90;;;;;;;20.95;70.88;98681.59;5012539;28;20676;-69